createdAt,value
2023-03-07T00:00:52.876Z,24.50
2023-03-07T00:03:25.283Z,23.90
2023-03-07T00:06:06.085Z,24.80
2023-03-07T00:08:38.985Z,25.30
2023-03-07T00:11:11.964Z,24.70
2023-03-07T00:13:44.326Z,24.70
2023-03-07T00:16:18.678Z,24.10
2023-03-07T00:18:51.522Z,25.30
2023-03-07T00:21:24.213Z,24.00
2023-03-07T00:23:57.261Z,25.40
2023-03-07T00:26:30.650Z,17.80
2023-03-07T00:29:04.240Z,24.70
2023-03-07T00:31:37.211Z,22.30
2023-03-07T00:34:09.529Z,23.60
2023-03-07T00:36:41.904Z,24.30
2023-03-07T00:39:14.370Z,24.00
2023-03-07T00:41:46.633Z,24.10
2023-03-07T00:44:18.763Z,26.40
2023-03-07T00:46:51.135Z,28.60
2023-03-07T00:49:24.252Z,30.00
2023-03-07T00:51:57.153Z,30.00
2023-03-07T00:54:30.045Z,31.40
2023-03-07T00:57:02.150Z,32.60
2023-03-07T00:59:34.723Z,30.10
2023-03-07T01:02:06.837Z,30.20
2023-03-07T01:04:39.442Z,30.50
2023-03-07T01:07:11.585Z,30.30
2023-03-07T01:09:43.885Z,29.50
2023-03-07T01:12:16.469Z,30.20
2023-03-07T01:14:51.222Z,31.70
2023-03-07T01:17:24.176Z,28.50
2023-03-07T01:19:58.098Z,29.30
2023-03-07T01:22:39.082Z,28.60
2023-03-07T01:25:16.092Z,27.70
2023-03-07T01:27:48.522Z,29.30
2023-03-07T01:30:20.972Z,27.10
2023-03-07T01:32:58.236Z,27.10
2023-03-07T01:35:31.877Z,27.80
2023-03-07T01:38:04.087Z,28.10
2023-03-07T01:43:26.734Z,25.90
2023-03-07T01:46:42.129Z,26.40
2023-03-07T01:51:54.050Z,25.60
2023-03-07T01:54:27.396Z,26.10
2023-03-07T01:57:01.002Z,25.20
2023-03-07T01:59:36.944Z,27.00
2023-03-07T02:02:12.808Z,26.10
2023-03-07T02:04:50.059Z,27.00
2023-03-07T02:07:26.692Z,28.10
2023-03-07T02:09:59.962Z,29.20
2023-03-07T02:12:32.731Z,22.10
2023-03-07T02:15:09.569Z,29.00
2023-03-07T02:17:42.565Z,30.80
2023-03-07T02:20:32.112Z,30.70
2023-03-07T02:23:06.285Z,31.80
2023-03-07T02:25:43.792Z,32.80
2023-03-07T02:28:19.536Z,31.70
2023-03-07T02:31:00.226Z,32.50
2023-03-07T02:33:35.329Z,32.30
2023-03-07T02:36:14.412Z,31.40
2023-03-07T02:38:54.749Z,28.20
2023-03-07T02:41:33.878Z,31.00
2023-03-07T02:44:09.087Z,30.90
2023-03-07T02:46:41.398Z,29.80
2023-03-07T02:49:13.704Z,29.90
2023-03-07T02:51:45.730Z,31.30
2023-03-07T02:54:19.306Z,29.10
2023-03-07T02:56:51.808Z,29.20
2023-03-07T02:59:24.303Z,28.30
2023-03-07T03:01:57.052Z,27.10
2023-03-07T03:04:29.507Z,29.20
2023-03-07T03:07:01.826Z,27.10
2023-03-07T03:09:35.503Z,27.00
2023-03-07T03:12:10.044Z,28.00
2023-03-07T03:14:42.506Z,28.40
2023-03-07T03:17:14.654Z,28.90
2023-03-07T03:19:47.376Z,27.50
2023-03-07T03:22:21.546Z,26.00
2023-03-07T03:24:54.536Z,28.20
2023-03-07T03:27:26.804Z,27.30
2023-03-07T03:29:59.293Z,27.40
2023-03-07T03:32:32.064Z,29.70
2023-03-07T03:35:05.238Z,30.20
2023-03-07T03:37:37.444Z,28.10
2023-03-07T03:40:14.909Z,30.10
2023-03-07T03:42:48.103Z,30.00
2023-03-07T03:45:23.803Z,28.30
2023-03-07T03:47:56.053Z,30.30
2023-03-07T03:50:29.360Z,28.10
2023-03-07T03:53:01.603Z,27.40
2023-03-07T03:55:34.020Z,29.10
2023-03-07T03:58:06.685Z,27.40
2023-03-07T04:00:39.212Z,27.50
2023-03-07T04:03:11.480Z,27.60
2023-03-07T04:05:44.130Z,28.40
2023-03-07T04:08:16.610Z,21.40
2023-03-07T04:10:49.021Z,27.30
2023-03-07T04:13:21.410Z,27.10
2023-03-07T04:15:56.132Z,28.70
2023-03-07T04:18:30.448Z,26.80
2023-03-07T04:21:03.035Z,26.10
2023-03-07T04:23:36.087Z,27.00
2023-03-07T04:26:10.791Z,20.00
2023-03-07T04:28:49.697Z,24.90
2023-03-07T04:31:30.426Z,24.70
2023-03-07T04:34:05.132Z,23.40
2023-03-07T04:36:37.482Z,24.50
2023-03-07T04:39:09.650Z,23.60
2023-03-07T04:41:42.329Z,21.70
2023-03-07T04:44:22.736Z,23.60
2023-03-07T04:46:54.840Z,23.10
2023-03-07T04:49:27.165Z,22.70
2023-03-07T04:51:59.454Z,22.30
2023-03-07T04:54:32.662Z,21.50
2023-03-07T04:57:06.780Z,22.50
2023-03-07T04:59:40.479Z,22.30
2023-03-07T05:02:15.139Z,21.40
2023-03-07T05:04:48.209Z,20.90
2023-03-07T05:07:20.835Z,21.90
2023-03-07T05:09:53.134Z,21.30
2023-03-07T05:12:27.840Z,22.00
2023-03-07T05:15:01.461Z,20.30
2023-03-07T05:17:35.076Z,17.90
2023-03-07T05:20:10.927Z,16.80
2023-03-07T05:22:43.828Z,22.10
2023-03-07T05:25:16.868Z,25.20
2023-03-07T05:27:50.532Z,25.00
2023-03-07T05:30:23.506Z,25.90
2023-03-07T05:32:57.562Z,25.00
2023-03-07T05:35:30.489Z,24.60
2023-03-07T05:38:04.554Z,26.50
2023-03-07T05:40:37.360Z,20.40
2023-03-07T05:43:10.180Z,25.80
2023-03-07T05:45:42.553Z,24.20
2023-03-07T05:48:14.667Z,23.20
2023-03-07T05:50:47.241Z,24.40
2023-03-07T05:53:21.090Z,23.60
2023-03-07T05:55:54.239Z,24.60
2023-03-07T05:58:27.018Z,22.60
2023-03-07T06:00:59.468Z,23.30
2023-03-07T06:03:31.711Z,23.20
2023-03-07T06:06:03.925Z,21.90
2023-03-07T06:08:37.788Z,21.50
2023-03-07T06:13:42.101Z,20.10
2023-03-07T06:16:14.311Z,21.60
2023-03-07T06:18:47.016Z,21.40
2023-03-07T06:21:20.851Z,19.60
2023-03-07T06:23:54.241Z,20.30
2023-03-07T06:26:27.859Z,21.80
2023-03-07T06:31:31.244Z,19.90
2023-03-07T06:34:04.781Z,21.40
2023-03-07T06:36:37.169Z,20.90
2023-03-07T06:39:09.721Z,22.40
2023-03-07T06:44:17.442Z,22.10
2023-03-07T06:46:49.974Z,27.60
2023-03-07T06:49:24.443Z,28.30
2023-03-07T06:51:57.371Z,21.00
2023-03-07T06:54:29.632Z,26.00
2023-03-07T06:57:01.980Z,25.70
2023-03-07T06:59:34.610Z,23.60
2023-03-07T07:02:08.232Z,24.80
2023-03-07T07:04:41.413Z,24.20
2023-03-07T07:07:14.414Z,21.80
2023-03-07T07:09:47.012Z,21.30
2023-03-07T07:12:20.425Z,22.40
2023-03-07T07:14:52.952Z,22.30
2023-03-07T07:17:25.647Z,21.50
2023-03-07T07:19:58.148Z,21.20
2023-03-07T07:22:31.848Z,22.60
2023-03-07T07:25:04.728Z,21.40
2023-03-07T07:27:38.333Z,20.60
2023-03-07T07:30:14.351Z,20.90
2023-03-07T07:32:46.961Z,21.10
2023-03-07T07:35:20.150Z,15.50
2023-03-07T07:37:52.968Z,19.20
2023-03-07T07:40:25.895Z,19.70
2023-03-07T07:42:58.395Z,18.50
2023-03-07T07:45:38.745Z,19.60
2023-03-07T07:48:11.820Z,18.90
2023-03-07T07:50:44.600Z,15.80
2023-03-07T07:53:18.416Z,19.00
2023-03-07T07:55:50.899Z,19.90
2023-03-07T07:58:23.294Z,20.40
2023-03-07T08:00:55.795Z,19.10
2023-03-07T08:03:29.076Z,20.60
2023-03-07T08:06:14.137Z,21.10
2023-03-07T08:08:49.852Z,19.70
2023-03-07T08:11:24.902Z,18.00
2023-03-07T08:13:57.565Z,17.20
2023-03-07T08:16:29.701Z,17.50
2023-03-07T08:19:02.739Z,17.20
2023-03-07T08:21:38.285Z,17.60
2023-03-07T08:24:10.793Z,16.00
2023-03-07T08:26:44.488Z,16.20
2023-03-07T08:29:17.526Z,16.90
2023-03-07T08:31:52.220Z,15.70
2023-03-07T08:34:25.050Z,15.80
2023-03-07T08:36:57.378Z,16.80
2023-03-07T08:39:40.238Z,15.60
2023-03-07T08:42:12.495Z,14.90
2023-03-07T08:44:44.873Z,15.40
2023-03-07T08:47:17.569Z,14.10
2023-03-07T08:49:49.869Z,14.50
2023-03-07T08:52:22.560Z,15.10
2023-03-07T08:54:55.467Z,15.10
2023-03-07T08:57:28.074Z,16.70
2023-03-07T09:00:00.478Z,15.30
2023-03-07T09:02:32.753Z,14.80
2023-03-07T09:05:05.301Z,14.70
2023-03-07T09:07:39.720Z,14.10
2023-03-07T09:10:13.780Z,14.70
2023-03-07T09:12:46.993Z,14.40
2023-03-07T09:15:19.315Z,13.70
2023-03-07T09:17:52.602Z,14.50
2023-03-07T09:20:25.343Z,13.20
2023-03-07T09:22:57.762Z,14.80
2023-03-07T09:25:30.772Z,13.80
2023-03-07T09:28:04.843Z,14.40
2023-03-07T09:30:40.341Z,14.20
2023-03-07T09:33:13.249Z,14.40
2023-03-07T09:35:45.361Z,13.80
2023-03-07T09:38:18.031Z,13.40
2023-03-07T09:40:51.183Z,13.40
2023-03-07T09:43:24.587Z,13.10
2023-03-07T09:46:30.702Z,13.00
2023-03-07T09:49:18.602Z,13.60
2023-03-07T09:51:56.578Z,13.20
2023-03-07T09:54:37.706Z,14.70
2023-03-07T09:57:18.955Z,13.80
2023-03-07T09:59:53.909Z,13.90
2023-03-07T10:02:33.246Z,14.20
2023-03-07T10:05:13.146Z,14.30
2023-03-07T10:07:45.849Z,14.90
2023-03-07T10:10:24.241Z,15.40
2023-03-07T10:13:10.926Z,15.00
2023-03-07T10:15:47.845Z,13.50
2023-03-07T10:18:58.486Z,13.60
2023-03-07T10:21:40.536Z,14.40
2023-03-07T10:24:38.376Z,13.30
2023-03-07T10:27:13.037Z,13.80
2023-03-07T10:29:50.003Z,14.80
2023-03-07T10:32:31.444Z,12.60
2023-03-07T10:35:15.371Z,13.60
2023-03-07T10:37:52.017Z,12.80
2023-03-07T10:40:30.528Z,11.50
2023-03-07T10:43:04.859Z,12.60
2023-03-07T10:45:38.255Z,11.70
2023-03-07T10:48:17.816Z,13.00
2023-03-07T10:50:58.368Z,13.60
2023-03-07T10:53:34.220Z,12.50
2023-03-07T10:56:18.299Z,11.40
2023-03-07T10:59:09.721Z,10.70
2023-03-07T11:01:56.675Z,12.20
2023-03-07T11:04:45.935Z,11.40
2023-03-07T11:07:31.253Z,11.30
2023-03-07T11:10:24.563Z,11.20
2023-03-07T11:12:59.788Z,11.10
2023-03-07T11:15:32.841Z,11.90
2023-03-07T11:18:08.099Z,11.50
2023-03-07T11:20:53.237Z,11.40
2023-03-07T11:23:28.289Z,11.30
2023-03-07T11:26:28.917Z,11.80
2023-03-07T11:29:11.349Z,11.00
2023-03-07T11:31:54.074Z,10.30
2023-03-07T11:34:39.909Z,10.80
2023-03-07T11:37:29.605Z,9.20
2023-03-07T11:40:24.985Z,9.40
2023-03-07T11:43:07.103Z,10.20
2023-03-07T11:45:49.139Z,8.90
2023-03-07T11:48:45.836Z,8.40
2023-03-07T11:51:38.187Z,8.60
2023-03-07T11:54:20.914Z,8.80
2023-03-07T11:56:57.571Z,10.20
2023-03-07T11:59:50.621Z,9.70
2023-03-07T12:02:51.039Z,10.00
2023-03-07T12:05:45.325Z,9.90
2023-03-07T12:11:14.568Z,11.10
2023-03-07T12:13:57.970Z,10.30
2023-03-07T12:16:42.454Z,10.70
2023-03-07T12:19:42.627Z,10.40
2023-03-07T12:22:30.528Z,12.20
2023-03-07T12:25:25.128Z,10.80
2023-03-07T12:28:11.612Z,10.70
2023-03-07T12:30:58.356Z,11.40
2023-03-07T12:33:48.686Z,10.10
2023-03-07T12:36:29.265Z,10.80
2023-03-07T12:39:07.337Z,10.40
2023-03-07T12:41:54.370Z,10.30
2023-03-07T12:44:35.112Z,10.40
2023-03-07T12:47:17.961Z,10.70
2023-03-07T12:50:01.892Z,10.50
2023-03-07T12:52:41.365Z,10.70
2023-03-07T12:55:25.450Z,10.30
2023-03-07T12:58:09.205Z,10.20
2023-03-07T13:00:48.903Z,9.60
2023-03-07T13:03:31.140Z,9.20
2023-03-07T13:06:05.020Z,10.90
2023-03-07T13:08:38.082Z,10.60
2023-03-07T13:11:18.466Z,10.00
2023-03-07T13:13:57.468Z,10.30
2023-03-07T13:16:44.905Z,9.40
2023-03-07T13:19:52.867Z,10.30
2023-03-07T13:23:02.437Z,10.10
2023-03-07T13:25:59.863Z,10.00
2023-03-07T13:28:44.948Z,10.00
2023-03-07T13:31:46.654Z,11.00
2023-03-07T13:34:51.886Z,10.20
2023-03-07T13:37:57.489Z,10.00
2023-03-07T13:40:59.371Z,9.10
2023-03-07T13:44:02.281Z,10.60
2023-03-07T13:46:48.591Z,10.40
2023-03-07T13:49:45.075Z,10.30
2023-03-07T13:52:30.805Z,10.00
2023-03-07T13:55:05.979Z,10.00
2023-03-07T13:57:44.959Z,10.20
2023-03-07T14:00:29.167Z,10.30
2023-03-07T14:03:02.205Z,10.80
2023-03-07T14:05:38.236Z,9.20
2023-03-07T14:08:19.285Z,10.10
2023-03-07T14:10:52.622Z,10.10
2023-03-07T14:13:43.827Z,9.90
2023-03-07T14:16:32.748Z,9.50
2023-03-07T14:19:20.904Z,10.30
2023-03-07T14:22:01.289Z,9.70
2023-03-07T14:24:52.488Z,10.60
2023-03-07T14:27:28.034Z,10.70
2023-03-07T14:30:00.607Z,10.20
2023-03-07T14:32:36.052Z,10.80
2023-03-07T14:35:15.668Z,10.40
2023-03-07T14:37:48.377Z,10.50
2023-03-07T14:40:38.457Z,10.40
2023-03-07T14:43:29.071Z,10.30
2023-03-07T14:46:15.099Z,10.20
2023-03-07T14:49:00.608Z,9.30
2023-03-07T14:51:36.545Z,10.00
2023-03-07T14:54:15.298Z,9.80
2023-03-07T14:56:47.977Z,9.80
2023-03-07T14:59:28.635Z,10.00
2023-03-07T15:02:01.819Z,9.70
2023-03-07T15:04:36.054Z,11.10
2023-03-07T15:07:11.744Z,10.60
2023-03-07T15:09:44.066Z,11.90
2023-03-07T15:12:24.536Z,11.80
2023-03-07T15:14:59.936Z,11.40
2023-03-07T15:17:36.873Z,11.60
2023-03-07T15:20:15.347Z,15.90
2023-03-07T15:22:48.199Z,12.10
2023-03-07T15:25:26.236Z,13.20
2023-03-07T15:28:04.697Z,11.00
2023-03-07T15:30:42.608Z,12.10
2023-03-07T15:33:22.576Z,11.40
2023-03-07T15:36:18.034Z,11.30
2023-03-07T15:38:51.947Z,13.10
2023-03-07T15:41:33.927Z,11.10
2023-03-07T15:44:20.136Z,12.50
2023-03-07T15:46:58.065Z,11.40
2023-03-07T15:49:37.789Z,12.10
2023-03-07T15:52:21.878Z,11.50
2023-03-07T15:57:28.216Z,12.10
2023-03-07T16:00:03.055Z,11.80
2023-03-07T16:02:46.802Z,12.30
2023-03-07T16:05:41.543Z,11.50
2023-03-07T16:08:16.666Z,12.40
2023-03-07T16:10:54.929Z,13.50
2023-03-07T16:13:32.401Z,12.10
2023-03-07T16:16:07.913Z,10.90
2023-03-07T16:18:40.625Z,13.20
2023-03-07T16:21:18.965Z,12.20
2023-03-07T16:23:51.753Z,13.10
2023-03-07T16:26:27.457Z,9.40
2023-03-07T16:29:01.122Z,12.50
2023-03-07T16:31:34.395Z,13.20
2023-03-07T16:34:13.941Z,13.10
2023-03-07T16:36:51.394Z,12.00
2023-03-07T16:39:25.630Z,11.80
2023-03-07T16:42:05.100Z,14.00
2023-03-07T16:44:44.663Z,13.10
2023-03-07T16:47:19.276Z,12.60
2023-03-07T16:49:51.872Z,15.60
2023-03-07T16:52:26.160Z,11.80
2023-03-07T16:54:59.259Z,14.60
2023-03-07T16:57:31.912Z,13.30
2023-03-07T17:00:04.265Z,14.40
2023-03-07T17:02:36.939Z,14.70
2023-03-07T17:05:16.271Z,14.10
2023-03-07T17:07:49.185Z,13.10
2023-03-07T17:10:22.641Z,14.50
2023-03-07T17:12:56.630Z,11.50
2023-03-07T17:15:31.346Z,14.80
2023-03-07T17:18:04.502Z,14.20
2023-03-07T17:20:37.825Z,14.10
2023-03-07T17:23:10.145Z,14.70
2023-03-07T17:25:45.656Z,14.10
2023-03-07T17:28:20.520Z,14.60
2023-03-07T17:30:53.102Z,12.10
2023-03-07T17:33:27.013Z,13.80
2023-03-07T17:36:01.176Z,14.30
2023-03-07T17:38:33.882Z,15.20
2023-03-07T17:41:06.462Z,12.50
2023-03-07T17:43:38.773Z,16.40
2023-03-07T17:46:13.846Z,14.30
2023-03-07T17:48:46.577Z,15.00
2023-03-07T17:51:18.769Z,15.40
2023-03-07T17:53:51.063Z,17.80
2023-03-07T17:56:23.795Z,17.00
2023-03-07T17:59:01.698Z,16.60
2023-03-07T18:01:37.242Z,18.00
2023-03-07T18:04:10.753Z,15.50
2023-03-07T18:06:44.722Z,17.90
2023-03-07T18:09:18.971Z,15.20
2023-03-07T18:11:51.558Z,15.90
2023-03-07T18:14:24.349Z,16.00
2023-03-07T18:16:56.883Z,15.60
2023-03-07T18:19:29.105Z,15.30
2023-03-07T18:22:01.359Z,15.30
2023-03-07T18:24:33.786Z,16.70
2023-03-07T18:27:08.799Z,16.00
2023-03-07T18:29:41.562Z,17.40
2023-03-07T18:32:15.451Z,17.70
2023-03-07T18:34:48.572Z,17.40
2023-03-07T18:37:21.484Z,17.00
2023-03-07T18:39:54.114Z,17.80
2023-03-07T18:42:26.264Z,16.10
2023-03-07T18:44:59.020Z,16.30
2023-03-07T18:47:31.356Z,16.80
2023-03-07T18:50:03.953Z,15.90
2023-03-07T18:52:36.586Z,17.00
2023-03-07T18:55:10.832Z,17.70
2023-03-07T18:57:44.935Z,19.30
2023-03-07T19:00:18.565Z,17.10
2023-03-07T19:02:50.696Z,18.20
2023-03-07T19:05:22.865Z,17.40
2023-03-07T19:07:55.992Z,16.80
2023-03-07T19:10:28.386Z,19.10
2023-03-07T19:13:01.345Z,17.70
2023-03-07T19:15:34.194Z,19.10
2023-03-07T19:18:06.821Z,18.50
2023-03-07T19:20:43.051Z,18.90
2023-03-07T19:23:15.359Z,19.00
2023-03-07T19:25:47.472Z,20.00
2023-03-07T19:28:19.698Z,20.80
2023-03-07T19:30:54.101Z,20.40
2023-03-07T19:33:31.522Z,20.90
2023-03-07T19:36:09.316Z,21.00
2023-03-07T19:38:42.430Z,21.50
2023-03-07T19:41:25.324Z,21.50
2023-03-07T19:43:59.085Z,20.30
2023-03-07T19:46:31.938Z,20.30
2023-03-07T19:49:04.728Z,21.40
2023-03-07T19:51:37.478Z,17.20
2023-03-07T19:54:11.157Z,20.60
2023-03-07T19:59:16.048Z,20.30
2023-03-07T20:01:50.072Z,20.80
2023-03-07T20:04:22.610Z,19.90
2023-03-07T20:06:55.226Z,20.10
2023-03-07T20:09:27.788Z,21.30
2023-03-07T20:12:02.337Z,22.40
2023-03-07T20:14:37.450Z,22.00
2023-03-07T20:17:11.163Z,22.00
2023-03-07T20:19:44.145Z,20.80
2023-03-07T20:22:18.059Z,20.20
2023-03-07T20:24:52.691Z,21.60
2023-03-07T20:27:27.068Z,22.90
2023-03-07T20:29:59.238Z,22.00
2023-03-07T20:32:32.404Z,18.80
2023-03-07T20:35:06.640Z,22.90
2023-03-07T20:37:41.040Z,21.80
2023-03-07T20:40:17.332Z,21.90
2023-03-07T20:42:51.885Z,23.30
2023-03-07T20:45:26.841Z,21.10
2023-03-07T20:47:59.023Z,22.50
2023-03-07T20:50:31.637Z,22.60
2023-03-07T20:53:08.395Z,21.90
2023-03-07T20:55:40.866Z,21.40
2023-03-07T20:58:14.174Z,22.60
2023-03-07T21:00:47.034Z,22.70
2023-03-07T21:03:19.318Z,18.40
2023-03-07T21:05:55.337Z,22.20
2023-03-07T21:08:27.877Z,21.90
2023-03-07T21:11:05.358Z,22.80
2023-03-07T21:13:39.669Z,22.10
2023-03-07T21:16:14.488Z,24.70
2023-03-07T21:18:47.516Z,23.40
2023-03-07T21:21:21.187Z,26.20
2023-03-07T21:24:00.564Z,24.40
2023-03-07T21:26:37.051Z,23.00
2023-03-07T21:29:11.252Z,23.40
2023-03-07T21:31:43.985Z,22.90
2023-03-07T21:34:22.671Z,21.80
2023-03-07T21:36:56.583Z,20.90
2023-03-07T21:39:38.963Z,19.80
2023-03-07T21:42:11.088Z,20.50
2023-03-07T21:44:45.460Z,18.90
2023-03-07T21:47:23.881Z,19.60
2023-03-07T21:49:56.144Z,20.30
2023-03-07T21:52:29.552Z,20.30
2023-03-07T21:55:01.820Z,18.30
2023-03-07T21:57:33.909Z,19.70
2023-03-07T22:00:08.483Z,19.50
2023-03-07T22:02:40.890Z,18.40
2023-03-07T22:05:13.761Z,20.40
2023-03-07T22:07:48.402Z,14.50
2023-03-07T22:10:21.859Z,19.80
2023-03-07T22:12:53.926Z,19.40
2023-03-07T22:15:26.250Z,21.00
2023-03-07T22:17:58.825Z,21.70
2023-03-07T22:20:31.121Z,20.40
2023-03-07T22:23:03.381Z,19.20
2023-03-07T22:25:39.821Z,21.40
2023-03-07T22:28:11.908Z,19.60
2023-03-07T22:30:44.252Z,20.20
2023-03-07T22:33:16.324Z,19.50
2023-03-07T22:35:56.438Z,19.90
2023-03-07T22:38:29.395Z,20.90
2023-03-07T22:41:06.961Z,19.90
2023-03-07T22:43:39.920Z,19.50
2023-03-07T22:46:12.675Z,21.60
2023-03-07T22:48:45.227Z,21.00
2023-03-07T22:51:19.170Z,21.40
2023-03-07T22:53:52.309Z,22.40
2023-03-07T22:56:26.132Z,21.40
2023-03-07T22:58:58.485Z,21.00
2023-03-07T23:01:31.604Z,21.10
2023-03-07T23:04:06.727Z,20.60
2023-03-07T23:06:39.820Z,20.20
2023-03-07T23:09:12.366Z,19.40
2023-03-07T23:11:46.660Z,19.40
2023-03-07T23:14:19.246Z,19.30
2023-03-07T23:16:51.617Z,18.10
2023-03-07T23:19:23.841Z,18.60
2023-03-07T23:21:55.996Z,18.80
2023-03-07T23:24:28.398Z,18.90
2023-03-07T23:27:00.836Z,17.10
2023-03-07T23:29:33.617Z,17.50
2023-03-07T23:32:06.073Z,18.30
2023-03-07T23:34:38.260Z,17.00
2023-03-07T23:37:10.670Z,17.80
2023-03-07T23:39:42.890Z,17.00
2023-03-07T23:42:15.706Z,17.60
2023-03-07T23:44:49.595Z,15.10
2023-03-07T23:47:21.800Z,16.30
2023-03-07T23:49:55.697Z,15.30
2023-03-07T23:52:28.179Z,15.80
2023-03-07T23:55:00.140Z,14.80
2023-03-07T23:57:34.108Z,15.10
